Time;durP1;ratioP1;P1;durP2;ratioP2;P2;SDS_P1;SDS_P2;PMS_P1;PMS_P2;Temp;Humidity;BMP_temperature;BMP_pressure;BME280_temperature;BME280_humidity;BME280_pressure;Samples;Min_cycle;Max_cycle;Signal;HPM_P1;HPM_P2
2022/01/02 00:00:47;;;;;;;0.00;0.00;;;7.30;87.60;;;;;;4161761;28;20080;-64
2022/01/02 00:03:24;;;;;;;0.00;0.00;;;7.30;87.70;;;;;;4162190;28;20337;-64
2022/01/02 00:06:08;;;;;;;0.00;0.00;;;7.30;87.70;;;;;;4161853;28;20096;-58
2022/01/02 00:08:50;;;;;;;0.00;0.00;;;7.30;87.70;;;;;;4161924;28;20057;-60
2022/01/02 00:11:37;;;;;;;0.00;0.00;;;7.30;87.60;;;;;;4161603;28;20141;-64
2022/01/02 00:14:25;;;;;;;0.00;0.00;;;7.40;87.60;;;;;;4162112;28;20075;-61
2022/01/02 00:17:03;;;;;;;0.00;0.00;;;7.40;87.60;;;;;;4162780;28;20060;-64
2022/01/02 00:19:53;;;;;;;0.00;0.00;;;7.30;87.60;;;;;;4165082;28;20128;-64
2022/01/02 00:22:34;;;;;;;0.00;0.00;;;7.30;87.50;;;;;;4164721;28;20051;-64
2022/01/02 00:25:22;;;;;;;0.00;0.00;;;7.30;87.40;;;;;;4165109;28;20107;-65
2022/01/02 00:28:06;;;;;;;0.00;0.00;;;7.20;87.80;;;;;;4165044;28;20053;-64
2022/01/02 00:30:44;;;;;;;0.00;0.00;;;7.20;87.30;;;;;;4164703;28;20052;-64
2022/01/02 00:33:27;;;;;;;0.00;0.00;;;7.10;87.30;;;;;;4165087;28;20083;-64
2022/01/02 00:36:09;;;;;;;0.00;0.00;;;7.20;87.40;;;;;;4164844;28;20045;-64
2022/01/02 00:38:45;;;;;;;0.00;0.00;;;7.20;87.20;;;;;;4164850;28;20081;-64
2022/01/02 00:41:45;;;;;;;0.00;0.00;;;7.20;87.30;;;;;;4152531;28;20049;-65
2022/01/02 00:44:59;;;;;;;0.00;0.00;;;7.20;87.20;;;;;;4150868;28;20057;-64
2022/01/02 00:47:57;;;;;;;0.00;0.00;;;7.20;86.90;;;;;;4164611;28;20103;-66
2022/01/02 00:50:49;;;;;;;0.00;0.00;;;7.00;87.10;;;;;;4150627;28;20136;-64
2022/01/02 00:53:31;;;;;;;0.00;0.00;;;6.60;88.00;;;;;;4150688;28;20045;-65
2022/01/02 00:56:15;;;;;;;0.00;0.00;;;6.30;89.10;;;;;;4164653;28;20609;-64
2022/01/02 00:58:52;;;;;;;0.00;0.00;;;6.10;90.00;;;;;;4164617;28;20080;-63
2022/01/02 01:01:41;;;;;;;0.00;0.00;;;6.10;90.10;;;;;;4164456;28;20052;-63
2022/01/02 01:04:19;;;;;;;0.00;0.00;;;6.20;90.00;;;;;;4165402;28;20204;-65
2022/01/02 01:07:06;;;;;;;0.00;0.00;;;6.20;90.20;;;;;;4164430;28;20584;-65
2022/01/02 01:09:43;;;;;;;0.00;0.00;;;6.10;90.40;;;;;;4164225;28;20433;-65
2022/01/02 01:12:26;;;;;;;0.00;0.00;;;6.00;90.70;;;;;;4163962;28;20053;-65
2022/01/02 01:15:05;;;;;;;0.00;0.00;;;6.20;90.60;;;;;;4164047;28;20053;-64
2022/01/02 01:17:47;;;;;;;0.00;0.00;;;6.30;90.50;;;;;;4176798;28;20475;-65
2022/01/02 01:20:38;;;;;;;0.00;0.00;;;6.40;90.70;;;;;;4165168;28;20056;-64
2022/01/02 01:23:21;;;;;;;0.00;0.00;;;6.50;90.60;;;;;;4165165;28;20042;-66
2022/01/02 01:25:58;;;;;;;0.00;0.00;;;6.30;90.80;;;;;;4164296;28;20056;-65
2022/01/02 01:28:44;;;;;;;0.00;0.00;;;6.20;91.00;;;;;;4150705;28;20057;-64
2022/01/02 01:31:20;;;;;;;0.00;0.00;;;6.40;90.90;;;;;;4149990;28;20073;-63
2022/01/02 01:34:02;;;;;;;0.00;0.00;;;6.60;90.70;;;;;;4150172;28;20136;-65
2022/01/02 01:36:38;;;;;;;0.00;0.00;;;6.60;90.50;;;;;;4164918;28;20041;-61
2022/01/02 01:39:21;;;;;;;0.00;0.00;;;6.40;90.60;;;;;;4163751;28;20537;-64
2022/01/02 01:42:06;;;;;;;0.00;0.00;;;6.50;90.50;;;;;;4164599;28;20045;-64
2022/01/02 01:47:24;;;;;;;0.00;0.00;;;6.60;90.20;;;;;;4163655;28;20061;-64
2022/01/02 01:50:04;;;;;;;0.00;0.00;;;6.70;90.00;;;;;;4150548;28;20061;-64
2022/01/02 01:52:48;;;;;;;0.00;0.00;;;6.70;89.80;;;;;;4164666;28;20049;-64
2022/01/02 01:55:25;;;;;;;0.00;0.00;;;6.60;89.50;;;;;;4164598;28;20415;-64
2022/01/02 01:58:10;;;;;;;0.00;0.00;;;6.70;89.40;;;;;;4149924;28;20068;-64
2022/01/02 02:00:47;;;;;;;0.00;0.00;;;6.70;89.40;;;;;;4164194;28;20116;-64
2022/01/02 02:03:44;;;;;;;0.00;0.00;;;6.60;89.40;;;;;;4163401;28;20061;-65
2022/01/02 02:06:20;;;;;;;0.00;0.00;;;6.60;89.50;;;;;;4163343;28;20045;-65
2022/01/02 02:09:05;;;;;;;0.00;0.00;;;6.60;89.60;;;;;;4149861;28;20066;-64
2022/01/02 02:11:40;;;;;;;0.00;0.00;;;6.60;90.10;;;;;;4163092;28;20391;-65
2022/01/02 02:14:37;;;;;;;0.00;0.00;;;6.60;89.70;;;;;;4163290;28;20116;-64
2022/01/02 02:17:13;;;;;;;0.00;0.00;;;6.60;89.50;;;;;;4161793;28;20128;-65
2022/01/02 02:20:20;;;;;;;0.00;0.00;;;6.60;89.10;;;;;;4163354;28;20792;-64
2022/01/02 02:23:01;;;;;;;0.00;0.00;;;6.50;89.20;;;;;;4149441;28;20225;-65
2022/01/02 02:25:43;;;;;;;0.00;0.00;;;6.60;89.10;;;;;;4163126;28;20088;-66
2022/01/02 02:28:25;;;;;;;0.00;0.00;;;6.60;89.10;;;;;;4163975;28;20156;-65
2022/01/02 02:31:08;;;;;;;0.00;0.00;;;6.60;89.20;;;;;;4162905;28;20091;-64
2022/01/02 02:33:44;;;;;;;0.00;0.00;;;6.60;89.10;;;;;;4163064;28;20437;-64
2022/01/02 02:36:27;;;;;;;0.00;0.00;;;6.50;89.20;;;;;;4163995;28;20406;-65
2022/01/02 02:39:03;;;;;;;;;;;6.50;89.20;;;;;;4148874;28;20042;-65
2022/01/02 02:41:47;;;;;;;0.00;0.00;;;6.40;89.20;;;;;;4163714;28;19957;-63
2022/01/02 02:44:36;;;;;;;0.00;0.00;;;6.20;90.10;;;;;;4163111;28;20046;-63
2022/01/02 02:50:12;;;;;;;0.00;0.00;;;6.20;90.70;;;;;;4176953;28;20049;-65
2022/01/02 02:52:48;;;;;;;0.00;0.00;;;6.30;90.80;;;;;;4162786;28;20123;-65
2022/01/02 02:55:33;;;;;;;0.00;0.00;;;6.40;90.70;;;;;;4163074;28;20507;-62
2022/01/02 02:58:27;;;;;;;0.00;0.00;;;6.20;90.80;;;;;;4176532;28;20142;-61
2022/01/02 03:01:15;;;;;;;0.00;0.00;;;6.10;91.10;;;;;;4148774;28;20058;-64
2022/01/02 03:03:52;;;;;;;0.00;0.00;;;6.20;91.00;;;;;;4164086;28;20053;-66
2022/01/02 03:06:35;;;;;;;0.00;0.00;;;6.20;90.90;;;;;;4176615;28;20049;-65
2022/01/02 03:09:11;;;;;;;0.00;0.00;;;6.20;90.80;;;;;;4162537;28;20045;-65
2022/01/02 03:11:53;;;;;;;0.00;0.00;;;6.30;90.60;;;;;;4162293;28;20048;-65
2022/01/02 03:14:32;;;;;;;0.00;0.00;;;6.40;90.50;;;;;;4162482;28;20115;-65
2022/01/02 03:17:15;;;;;;;0.00;0.00;;;6.50;90.10;;;;;;4161354;28;20136;-65
2022/01/02 03:19:57;;;;;;;0.00;0.00;;;6.30;90.00;;;;;;4148649;28;20053;-65
2022/01/02 03:22:40;;;;;;;0.00;0.00;;;6.10;90.20;;;;;;4171834;28;20139;-66
2022/01/02 03:25:22;;;;;;;0.00;0.00;;;6.10;90.10;;;;;;4178939;28;20037;-66
2022/01/02 03:27:59;;;;;;;0.00;0.00;;;6.30;89.90;;;;;;4178804;28;20107;-66
2022/01/02 03:30:42;;;;;;;0.00;0.00;;;6.40;89.40;;;;;;4164108;28;20459;-63
2022/01/02 03:33:19;;;;;;;0.00;0.00;;;6.50;88.80;;;;;;4178272;28;20517;-69
2022/01/02 03:36:04;;;;;;;0.00;0.00;;;6.40;88.60;;;;;;4179052;28;20059;-66
2022/01/02 03:38:44;;;;;;;0.00;0.00;;;6.40;88.60;;;;;;4164847;28;20052;-65
2022/01/02 03:41:33;;;;;;;0.00;0.00;;;6.40;88.50;;;;;;4178713;28;20063;-61
2022/01/02 03:44:15;;;;;;;0.00;0.00;;;6.30;88.20;;;;;;4178695;28;20052;-66
2022/01/02 03:46:51;;;;;;;0.00;0.00;;;6.10;88.70;;;;;;4192620;28;20090;-64
2022/01/02 03:49:34;;;;;;;0.00;0.00;;;6.10;89.10;;;;;;4166843;28;20081;-65
2022/01/02 03:52:10;;;;;;;0.00;0.00;;;6.20;89.20;;;;;;4167932;28;20050;-64
2022/01/02 03:54:53;;;;;;;0.00;0.00;;;6.30;89.20;;;;;;4182015;28;20049;-66
2022/01/02 03:57:29;;;;;;;0.00;0.00;;;6.40;89.00;;;;;;4182124;28;20103;-65
2022/01/02 04:00:20;;;;;;;0.00;0.00;;;6.40;89.10;;;;;;4195988;28;20053;-64
2022/01/02 04:02:56;;;;;;;0.00;0.00;;;6.50;89.00;;;;;;4181892;28;20071;-64
2022/01/02 04:05:39;;;;;;;0.00;0.00;;;6.40;89.20;;;;;;4195933;28;20045;-55
2022/01/02 04:08:14;;;;;;;0.00;0.00;;;6.30;89.30;;;;;;4181779;28;20045;-61
2022/01/02 04:10:56;;;;;;;0.00;0.00;;;6.40;89.30;;;;;;4181577;28;20041;-65
2022/01/02 04:13:32;;;;;;;0.00;0.00;;;6.40;89.20;;;;;;4171000;28;20418;-59
2022/01/02 04:16:14;;;;;;;0.00;0.00;;;6.40;89.20;;;;;;4181687;28;20057;-65
2022/01/02 04:18:57;;;;;;;0.00;0.00;;;6.40;89.10;;;;;;4180190;28;20144;-61
2022/01/02 04:21:32;;;;;;;0.00;0.00;;;6.30;89.00;;;;;;4195518;28;20455;-55
2022/01/02 04:24:15;;;;;;;0.00;0.00;;;6.30;89.10;;;;;;4195517;28;20094;-58
2022/01/02 04:26:51;;;;;;;0.00;0.00;;;6.30;89.20;;;;;;4181542;28;20148;-55
2022/01/02 04:29:33;;;;;;;0.00;0.00;;;6.30;89.20;;;;;;4181681;28;20469;-61
2022/01/02 04:32:16;;;;;;;0.00;0.00;;;6.30;89.20;;;;;;4181256;28;20053;-64
2022/01/02 04:34:51;;;;;;;0.00;0.00;;;6.40;89.50;;;;;;4181393;28;20183;-57
2022/01/02 04:37:33;;;;;;;0.00;0.00;;;6.40;89.50;;;;;;4181304;28;20041;-56
2022/01/02 04:40:16;;;;;;;0.00;0.00;;;6.40;89.40;;;;;;4181486;28;20407;-65
2022/01/02 04:42:52;;;;;;;0.00;0.00;;;6.40;89.30;;;;;;4195161;28;20098;-51
2022/01/02 04:45:35;;;;;;;0.00;0.00;;;6.40;89.40;;;;;;4181386;28;20059;-57
2022/01/02 04:48:10;;;;;;;0.00;0.00;;;6.40;89.60;;;;;;4167254;28;20100;-65
2022/01/02 04:50:53;;;;;;;0.00;0.00;;;6.40;89.60;;;;;;4166983;28;20045;-54
2022/01/02 04:53:30;;;;;;;0.00;0.00;;;6.40;89.40;;;;;;4181324;28;20045;-55
2022/01/02 04:56:13;;;;;;;0.00;0.00;;;6.30;89.40;;;;;;4167223;28;20045;-50
2022/01/02 04:58:50;;;;;;;0.00;0.00;;;6.20;89.60;;;;;;4195000;28;20075;-65
2022/01/02 05:01:33;;;;;;;0.00;0.00;;;6.20;89.80;;;;;;4180550;28;20065;-54
2022/01/02 05:04:09;;;;;;;0.00;0.00;;;6.20;90.00;;;;;;4167050;28;20060;-62
2022/01/02 05:06:51;;;;;;;0.00;0.00;;;6.20;90.00;;;;;;4180940;28;20139;-61
2022/01/02 05:09:37;;;;;;;0.00;0.00;;;6.30;90.10;;;;;;4194902;28;20060;-55
2022/01/02 05:12:13;;;;;;;0.00;0.00;;;6.20;90.40;;;;;;4180481;28;20049;-57
2022/01/02 05:14:54;;;;;;;0.00;0.00;;;6.20;90.60;;;;;;4180978;28;20045;-56
2022/01/02 05:17:29;;;;;;;0.00;0.00;;;6.20;90.50;;;;;;4193695;28;20405;-57
2022/01/02 05:20:13;;;;;;;0.00;0.00;;;6.10;90.60;;;;;;4194915;28;20422;-54
2022/01/02 05:22:56;;;;;;;0.00;0.00;;;6.20;90.50;;;;;;4180906;28;20055;-56
2022/01/02 05:25:33;;;;;;;0.00;0.00;;;6.20;90.40;;;;;;4194615;28;20502;-55
2022/01/02 05:28:16;;;;;;;0.00;0.00;;;6.30;90.30;;;;;;4194636;28;20057;-56
2022/01/02 05:30:52;;;;;;;0.00;0.00;;;6.30;90.30;;;;;;4180240;28;20053;-64
2022/01/02 05:33:34;;;;;;;0.00;0.00;;;6.20;90.40;;;;;;4180675;28;20141;-65
2022/01/02 05:36:10;;;;;;;0.00;0.00;;;6.20;90.70;;;;;;4180531;28;20049;-61
2022/01/02 05:38:54;;;;;;;0.00;0.00;;;6.20;90.80;;;;;;4194318;28;20052;-64
2022/01/02 05:41:33;;;;;;;0.00;0.00;;;6.20;90.70;;;;;;4194206;28;20477;-63
2022/01/02 05:44:19;;;;;;;0.00;0.00;;;6.30;90.80;;;;;;4194282;28;20045;-66
2022/01/02 05:46:54;;;;;;;0.00;0.00;;;6.20;91.10;;;;;;4180229;28;20045;-63
2022/01/02 05:49:37;;;;;;;0.00;0.00;;;6.30;90.90;;;;;;4180425;28;20087;-65
2022/01/02 05:52:13;;;;;;;0.00;0.00;;;6.30;90.90;;;;;;4166370;28;20045;-64
2022/01/02 05:54:55;;;;;;;0.00;0.00;;;6.30;90.90;;;;;;4166470;28;20057;-66
2022/01/02 05:57:32;;;;;;;0.00;0.00;;;6.30;91.00;;;;;;4180047;28;20041;-65
2022/01/02 06:00:16;;;;;;;0.00;0.00;;;6.30;91.10;;;;;;4194037;28;20051;-65
2022/01/02 06:02:57;;;;;;;0.00;0.00;;;6.20;91.20;;;;;;4166435;28;20668;-64
2022/01/02 06:05:41;;;;;;;0.00;0.00;;;6.30;91.30;;;;;;4180243;28;20049;-65
2022/01/02 06:08:16;;;;;;;0.00;0.00;;;6.30;91.20;;;;;;4179977;28;20140;-63
2022/01/02 06:10:59;;;;;;;0.00;0.00;;;6.20;91.30;;;;;;4179890;28;20111;-65
2022/01/02 06:13:35;;;;;;;0.00;0.00;;;6.10;91.70;;;;;;4166312;28;20433;-66
2022/01/02 06:16:18;;;;;;;0.00;0.00;;;6.10;91.80;;;;;;4166034;28;20081;-66
2022/01/02 06:18:53;;;;;;;;;;;6.10;91.90;;;;;;4178828;28;20075;-65
2022/01/02 06:21:42;;;;;;;0.00;0.00;;;6.20;91.70;;;;;;4179509;28;19920;-64
2022/01/02 06:24:18;;;;;;;0.00;0.00;;;6.10;91.50;;;;;;4193886;28;20049;-65
2022/01/02 06:27:00;;;;;;;0.00;0.00;;;6.00;91.70;;;;;;4193569;28;20113;-65
2022/01/02 06:29:36;;;;;;;0.00;0.00;;;6.00;92.10;;;;;;4193556;28;20052;-63
2022/01/02 06:32:17;;;;;;;0.00;0.00;;;6.00;92.30;;;;;;4165449;28;20049;-65
2022/01/02 06:35:00;;;;;;;0.00;0.00;;;5.80;92.40;;;;;;4179446;28;20087;-64
2022/01/02 06:37:36;;;;;;;0.00;0.00;;;5.90;92.60;;;;;;4165630;28;20104;-65
2022/01/02 06:40:21;;;;;;;0.00;0.00;;;6.00;92.20;;;;;;4179749;28;20457;-64
2022/01/02 06:43:03;;;;;;;0.00;0.00;;;6.10;92.00;;;;;;4179408;28;20090;-65
2022/01/02 06:45:39;;;;;;;0.00;0.00;;;6.20;91.80;;;;;;4166469;28;20051;-65
2022/01/02 06:48:21;;;;;;;0.00;0.00;;;6.10;91.60;;;;;;4179393;28;20479;-65
2022/01/02 06:50:57;;;;;;;0.00;0.00;;;6.00;91.60;;;;;;4192913;28;20060;-63
2022/01/02 06:53:40;;;;;;;0.00;0.00;;;5.80;91.70;;;;;;4193122;28;20048;-63
2022/01/02 06:56:16;;;;;;;0.00;0.00;;;5.70;91.90;;;;;;4165398;28;20056;-65
2022/01/02 06:58:51;;;;;;;0.00;0.00;;;5.80;91.80;;;;;;4179283;28;20422;-60
2022/01/02 07:01:34;;;;;;;0.00;0.00;;;5.90;91.60;;;;;;4179066;28;20119;-65
2022/01/02 07:04:10;;;;;;;0.00;0.00;;;6.00;91.40;;;;;;4193229;28;20072;-65
2022/01/02 07:06:52;;;;;;;0.00;0.00;;;6.00;91.20;;;;;;4179186;28;20119;-58
2022/01/02 07:09:30;;;;;;;0.00;0.00;;;6.10;91.00;;;;;;4178961;28;20055;-64
2022/01/02 07:12:12;;;;;;;0.00;0.00;;;6.00;90.90;;;;;;4178783;28;20052;-65
2022/01/02 07:14:48;;;;;;;0.00;0.00;;;5.90;91.00;;;;;;4179000;28;20118;-65
2022/01/02 07:17:29;;;;;;;0.00;0.00;;;6.00;91.00;;;;;;4178927;28;20040;-62
2022/01/02 07:20:14;;;;;;;0.00;0.00;;;6.10;90.90;;;;;;4146162;28;20492;-63
2022/01/02 07:22:56;;;;;;;0.00;0.00;;;6.00;90.80;;;;;;4145944;28;20064;-64
2022/01/02 07:25:32;;;;;;;0.00;0.00;;;6.10;90.70;;;;;;4159434;28;20045;-64
2022/01/02 07:28:14;;;;;;;0.00;0.00;;;6.10;90.70;;;;;;4145955;28;20054;-55
2022/01/02 07:30:56;;;;;;;0.00;0.00;;;5.80;90.80;;;;;;4146073;28;20058;-56
2022/01/02 07:33:38;;;;;;;0.00;0.00;;;5.50;91.20;;;;;;4146302;28;20057;-64
2022/01/02 07:36:21;;;;;;;0.00;0.00;;;5.20;91.40;;;;;;4134490;28;20050;-56
2022/01/02 07:38:57;;;;;;;0.00;0.00;;;5.10;91.60;;;;;;4146276;28;20080;-54
2022/01/02 07:41:39;;;;;;;0.00;0.00;;;5.10;91.70;;;;;;4145689;28;20104;-63
2022/01/02 07:44:17;;;;;;;0.00;0.00;;;5.00;92.30;;;;;;4145853;28;20057;-65
2022/01/02 07:46:59;;;;;;;0.00;0.00;;;4.80;92.40;;;;;;4159838;28;20092;-64
2022/01/02 07:49:35;;;;;;;0.00;0.00;;;4.70;92.90;;;;;;4133266;28;20057;-59
2022/01/02 07:52:24;;;;;;;0.00;0.00;;;4.60;93.10;;;;;;4145568;28;20042;-57
2022/01/02 07:55:07;;;;;;;0.00;0.00;;;4.70;93.20;;;;;;4146002;28;20140;-56
2022/01/02 07:57:49;;;;;;;0.00;0.00;;;4.70;93.40;;;;;;4146447;28;20053;-55
2022/01/02 08:00:25;;;;;;;0.00;0.00;;;4.70;93.60;;;;;;4146219;28;20133;-61
2022/01/02 08:03:08;;;;;;;0.00;0.00;;;4.80;94.00;;;;;;4146101;28;20048;-59
2022/01/02 08:05:47;;;;;;;0.00;0.00;;;4.90;94.00;;;;;;4146179;28;20046;-65
2022/01/02 08:08:29;;;;;;;0.00;0.00;;;5.00;94.00;;;;;;4145985;28;20082;-65
2022/01/02 08:11:05;;;;;;;0.00;0.00;;;5.20;93.80;;;;;;4145902;28;20112;-65
2022/01/02 08:13:47;;;;;;;0.00;0.00;;;5.30;93.70;;;;;;4145662;28;20042;-66
2022/01/02 08:16:22;;;;;;;0.00;0.00;;;5.40;93.60;;;;;;4146145;28;20050;-66
2022/01/02 08:19:06;;;;;;;0.00;0.00;;;5.40;93.50;;;;;;4166055;28;20209;-65
2022/01/02 08:21:49;;;;;;;0.00;0.00;;;5.50;93.50;;;;;;4178742;28;20095;-64
2022/01/02 08:24:30;;;;;;;0.00;0.00;;;5.80;93.50;;;;;;4192969;28;20864;-62
2022/01/02 08:27:06;;;;;;;0.00;0.00;;;6.20;93.30;;;;;;4164849;28;20415;-66
2022/01/02 08:29:48;;;;;;;0.00;0.00;;;6.80;92.90;;;;;;4192608;28;20056;-67
2022/01/02 08:32:24;;;;;;;0.00;0.00;;;7.20;92.50;;;;;;4192369;28;20051;-67
2022/01/02 08:35:06;;;;;;;0.00;0.00;;;7.40;91.90;;;;;;4192866;28;20056;-66
2022/01/02 08:37:42;;;;;;;0.00;0.00;;;8.10;91.90;;;;;;4194440;28;20045;-65
2022/01/02 08:40:24;;;;;;;0.00;0.00;;;8.70;91.20;;;;;;4169855;28;20110;-65
2022/01/02 08:43:00;;;;;;;0.00;0.00;;;8.90;90.40;;;;;;4181577;28;20107;-66
2022/01/02 08:45:43;;;;;;;0.00;0.00;;;8.80;90.50;;;;;;4195866;28;20131;-66
2022/01/02 08:48:19;;;;;;;0.00;0.00;;;9.00;90.30;;;;;;4195858;28;20041;-62
2022/01/02 08:51:01;;;;;;;0.00;0.00;;;9.00;89.60;;;;;;4181242;28;20072;-62
2022/01/02 08:53:39;;;;;;;0.00;0.00;;;9.20;89.30;;;;;;4190454;28;20056;-63
2022/01/02 08:56:28;;;;;;;0.00;0.00;;;9.60;89.00;;;;;;4186514;28;20045;-60
2022/01/02 08:59:10;;;;;;;0.00;0.00;;;9.70;87.40;;;;;;4169417;28;20049;-58
2022/01/02 09:01:53;;;;;;;0.00;0.00;;;9.70;87.80;;;;;;4178377;28;20045;-61
2022/01/02 09:04:28;;;;;;;0.00;0.00;;;9.90;87.40;;;;;;4178582;28;20045;-63
2022/01/02 09:07:10;;;;;;;0.00;0.00;;;10.10;86.10;;;;;;4178738;28;20072;-62
2022/01/02 09:09:46;;;;;;;0.00;0.00;;;10.10;86.00;;;;;;4178339;28;20048;-62
2022/01/02 09:12:27;;;;;;;0.00;0.00;;;10.20;85.60;;;;;;4178107;28;20045;-64
2022/01/02 09:15:03;;;;;;;0.00;0.00;;;9.90;84.70;;;;;;4178744;28;20490;-64
2022/01/02 09:17:45;;;;;;;0.00;0.00;;;9.80;85.30;;;;;;4178618;28;20463;-62
2022/01/02 09:20:28;;;;;;;0.00;0.00;;;9.50;85.50;;;;;;4164482;28;20050;-63
2022/01/02 09:23:10;;;;;;;0.00;0.00;;;9.50;85.40;;;;;;4172653;28;20079;-63
2022/01/02 09:25:46;;;;;;;0.00;0.00;;;9.60;86.00;;;;;;4180955;28;20055;-63
2022/01/02 09:28:27;;;;;;;0.00;0.00;;;10.00;85.30;;;;;;4194919;28;20044;-62
2022/01/02 09:31:03;;;;;;;0.00;0.00;;;10.20;85.40;;;;;;4180585;28;20425;-63
2022/01/02 09:33:39;;;;;;;0.00;0.00;;;10.50;84.50;;;;;;4168815;28;20041;-61
2022/01/02 09:36:22;;;;;;;0.00;0.00;;;10.70;84.60;;;;;;4177834;28;20041;-63
2022/01/02 09:38:58;;;;;;;0.00;0.00;;;11.00;84.00;;;;;;4164304;28;20046;-63
2022/01/02 09:41:41;;;;;;;0.00;0.00;;;11.10;83.50;;;;;;4177518;28;20095;-60
2022/01/02 09:44:16;;;;;;;0.00;0.00;;;11.10;83.00;;;;;;4170942;28;20045;-61
2022/01/02 09:47:00;;;;;;;0.00;0.00;;;11.00;82.50;;;;;;4180356;28;20049;-62
2022/01/02 09:49:41;;;;;;;0.00;0.00;;;10.80;82.60;;;;;;4193854;28;20482;-64
2022/01/02 09:52:25;;;;;;;0.00;0.00;;;10.70;83.00;;;;;;4193827;28;20045;-62
2022/01/02 09:55:02;;;;;;;0.00;0.00;;;10.30;83.40;;;;;;4165973;28;20119;-62
2022/01/02 09:57:53;;;;;;;0.00;0.00;;;10.20;84.00;;;;;;4163650;28;20049;-60
2022/01/02 10:00:45;;;;;;;0.00;0.00;;;10.20;83.50;;;;;;4172101;28;20041;-59
2022/01/02 10:03:41;;;;;;;0.00;0.00;;;10.20;83.80;;;;;;4193706;28;20487;-60
2022/01/02 10:06:18;;;;;;;0.00;0.00;;;10.20;83.40;;;;;;4178698;28;20049;-59
2022/01/02 10:09:00;;;;;;;0.00;0.00;;;10.20;83.10;;;;;;4162782;28;20128;-63
2022/01/02 10:11:40;;;;;;;0.00;0.00;;;10.20;82.60;;;;;;4193112;28;20063;-63
2022/01/02 10:14:28;;;;;;;0.00;0.00;;;10.40;82.70;;;;;;4179333;28;20103;-64
2022/01/02 10:17:05;;;;;;;0.00;0.00;;;10.40;83.00;;;;;;4179283;28;20053;-62
2022/01/02 10:19:59;;;;;;;0.00;0.00;;;10.40;82.80;;;;;;4167391;28;20481;-63
2022/01/02 10:22:28;;;;;;;0.00;0.00;;;11.20;82.80;;;;;;4192596;28;20441;-64
2022/01/02 10:25:03;;;;;;;0.00;0.00;;;12.00;82.30;;;;;;4192922;28;20084;-63
2022/01/02 10:27:46;;;;;;;0.00;0.00;;;12.80;80.00;;;;;;4173520;28;20042;-64
2022/01/02 10:30:22;;;;;;;0.00;0.00;;;13.80;78.40;;;;;;4193065;28;20050;-60
2022/01/02 10:33:05;;;;;;;0.00;0.00;;;14.30;74.70;;;;;;4193599;28;20052;-60
2022/01/02 10:35:41;;;;;;;0.00;0.00;;;14.50;74.10;;;;;;4179465;28;20506;-61
2022/01/02 10:38:24;;;;;;;0.00;0.00;;;14.90;73.50;;;;;;4193822;28;20060;-63
2022/01/02 10:41:00;;;;;;;0.00;0.00;;;15.50;70.40;;;;;;4179082;28;20087;-60
2022/01/02 10:43:42;;;;;;;0.00;0.00;;;15.90;69.90;;;;;;4167628;28;20061;-62
2022/01/02 10:46:18;;;;;;;0.00;0.00;;;16.10;69.00;;;;;;4178837;28;20079;-59
2022/01/02 10:48:59;;;;;;;0.00;0.00;;;16.30;66.50;;;;;;4179433;28;20060;-59
2022/01/02 10:51:35;;;;;;;0.00;0.00;;;16.50;65.60;;;;;;4178823;28;20057;-60
2022/01/02 10:54:16;;;;;;;0.00;0.00;;;16.70;65.60;;;;;;4192897;28;20469;-59
2022/01/02 10:56:52;;;;;;;0.00;0.00;;;16.40;65.10;;;;;;4179263;28;20592;-59
2022/01/02 10:59:35;;;;;;;0.00;0.00;;;16.60;65.20;;;;;;4178692;28;20049;-60
2022/01/02 11:02:16;;;;;;;0.00;0.00;;;16.60;64.70;;;;;;4176245;28;20041;-60
2022/01/02 11:05:13;;;;;;;0.00;0.00;;;17.20;63.30;;;;;;4179317;28;20057;-60
2022/01/02 11:07:58;;;;;;;0.00;0.00;;;17.50;62.00;;;;;;4167622;28;20457;-64
2022/01/02 11:10:41;;;;;;;0.00;0.00;;;17.50;60.90;;;;;;4178821;28;20083;-61
2022/01/02 11:13:18;;;;;;;0.00;0.00;;;17.50;61.60;;;;;;4178903;28;20111;-58
2022/01/02 11:16:02;;;;;;;0.00;0.00;;;17.50;60.40;;;;;;4175482;28;20067;-63
2022/01/02 11:18:38;;;;;;;0.00;0.00;;;17.50;59.00;;;;;;4177043;28;20056;-64
2022/01/02 11:21:36;;;;;;;0.00;0.00;;;17.00;59.00;;;;;;4178240;28;20048;-63
2022/01/02 11:24:24;;;;;;;0.00;0.00;;;16.00;60.30;;;;;;4178636;28;20052;-63
2022/01/02 11:27:05;;;;;;;0.00;0.00;;;15.40;62.00;;;;;;4178986;28;20049;-64
2022/01/02 11:29:48;;;;;;;0.00;0.00;;;14.70;64.00;;;;;;4178994;28;20048;-63
2022/01/02 11:32:26;;;;;;;0.00;0.00;;;14.10;65.40;;;;;;4178797;28;20057;-62
2022/01/02 11:35:25;;;;;;;0.00;0.00;;;13.70;67.20;;;;;;4178590;28;20053;-62
2022/01/02 11:38:02;;;;;;;0.00;0.00;;;13.40;68.50;;;;;;4178831;28;20064;-63
2022/01/02 11:40:58;;;;;;;0.00;0.00;;;12.90;69.30;;;;;;4162246;28;20056;-63
2022/01/02 11:43:57;;;;;;;0.00;0.00;;;12.40;70.30;;;;;;4176564;28;20049;-62
2022/01/02 11:46:46;;;;;;;0.00;0.00;;;11.80;71.20;;;;;;4164166;28;20076;-63
2022/01/02 11:49:49;;;;;;;0.00;0.00;;;11.10;73.20;;;;;;4178737;28;20061;-63
2022/01/02 11:52:34;;;;;;;0.00;0.00;;;11.10;73.30;;;;;;4175116;28;20086;-63
2022/01/02 11:55:22;;;;;;;0.00;0.00;;;10.80;74.20;;;;;;4179982;28;20053;-62
2022/01/02 11:57:58;;;;;;;0.00;0.00;;;10.80;74.80;;;;;;4174600;28;20045;-62
2022/01/02 12:00:44;;;;;;;0.00;0.00;;;10.60;74.70;;;;;;4172686;28;20052;-61
2022/01/02 12:03:40;;;;;;;0.00;0.00;;;10.80;74.20;;;;;;4167026;28;20045;-62
2022/01/02 12:06:43;;;;;;;0.00;0.00;;;10.80;74.10;;;;;;4162278;28;20439;-63
2022/01/02 12:09:33;;;;;;;0.00;0.00;;;10.80;73.50;;;;;;4150996;28;20048;-60
2022/01/02 12:12:16;;;;;;;0.00;0.00;;;10.80;73.20;;;;;;4190778;28;20048;-59
2022/01/02 12:14:53;;;;;;;0.00;0.00;;;11.00;73.20;;;;;;4165589;28;20081;-60
2022/01/02 12:18:19;;;;;;;0.00;0.00;;;11.00;72.90;;;;;;4167129;28;20042;-61
2022/01/02 12:21:05;;;;;;;0.00;0.00;;;11.30;71.90;;;;;;4181763;28;20048;-60
2022/01/02 12:23:52;;;;;;;0.00;0.00;;;11.40;71.80;;;;;;4165344;28;20069;-59
2022/01/02 12:26:35;;;;;;;0.00;0.00;;;11.50;71.30;;;;;;4167531;28;20111;-62
2022/01/02 12:29:19;;;;;;;0.00;0.00;;;11.80;70.90;;;;;;4164970;28;20133;-61
2022/01/02 12:32:01;;;;;;;0.00;0.00;;;11.80;70.90;;;;;;4165585;28;21261;-59
2022/01/02 12:34:43;;;;;;;0.00;0.00;;;12.00;70.50;;;;;;4180500;28;20261;-61
2022/01/02 12:37:28;;;;;;;0.00;0.00;;;12.10;70.30;;;;;;4178330;28;20045;-57
2022/01/02 12:40:17;;;;;;;0.00;0.00;;;12.30;69.80;;;;;;4164809;28;20048;-59
2022/01/02 12:42:56;;;;;;;0.00;0.00;;;12.40;70.20;;;;;;4164874;28;20065;-60
2022/01/02 12:45:39;;;;;;;0.00;0.00;;;12.20;70.60;;;;;;4170764;28;20061;-60
2022/01/02 12:48:14;;;;;;;0.00;0.00;;;12.00;71.20;;;;;;4168044;28;20578;-61
2022/01/02 12:51:11;;;;;;;0.00;0.00;;;12.00;71.70;;;;;;4180898;28;20044;-63
2022/01/02 12:53:47;;;;;;;0.00;0.00;;;12.00;72.10;;;;;;4180781;28;20064;-59
2022/01/02 12:56:38;;;;;;;0.00;0.00;;;12.10;71.60;;;;;;4183336;28;20044;-58
2022/01/02 12:59:35;;;;;;;0.00;0.00;;;12.10;70.90;;;;;;4180874;28;20052;-57
2022/01/02 13:02:14;;;;;;;0.00;0.00;;;12.30;70.70;;;;;;4180019;28;20053;-62
2022/01/02 13:04:58;;;;;;;0.00;0.00;;;12.50;69.80;;;;;;4180824;28;20136;-58
2022/01/02 13:07:36;;;;;;;0.00;0.00;;;12.70;69.10;;;;;;4180820;28;20142;-60
2022/01/02 13:10:19;;;;;;;0.00;0.00;;;12.60;67.90;;;;;;4165978;28;20057;-59
2022/01/02 13:12:55;;;;;;;0.00;0.00;;;12.60;67.00;;;;;;4180722;28;20595;-59
2022/01/02 13:15:37;;;;;;;0.00;0.00;;;12.50;67.60;;;;;;4164408;28;20084;-59
2022/01/02 13:18:13;;;;;;;0.00;0.00;;;12.60;67.80;;;;;;4180641;28;20107;-63
2022/01/02 13:21:03;;;;;;;0.00;0.00;;;12.80;67.70;;;;;;4194310;28;20525;-62
2022/01/02 13:23:39;;;;;;;0.00;0.00;;;12.90;67.90;;;;;;4178528;28;20049;-63
2022/01/02 13:26:21;;;;;;;0.00;0.00;;;12.90;68.00;;;;;;4181109;28;20056;-64
2022/01/02 13:29:06;;;;;;;0.00;0.00;;;13.00;69.10;;;;;;4181097;28;20462;-62
2022/01/02 13:31:41;;;;;;;0.00;0.00;;;12.90;69.90;;;;;;4180844;28;20128;-64
2022/01/02 13:34:31;;;;;;;0.00;0.00;;;13.00;69.40;;;;;;4168862;28;20080;-63
2022/01/02 13:37:08;;;;;;;0.00;0.00;;;13.10;68.00;;;;;;4180261;28;20041;-63
2022/01/02 13:39:47;;;;;;;0.00;0.00;;;12.90;68.20;;;;;;4180571;28;20139;-64
2022/01/02 13:42:42;;;;;;;0.00;0.00;;;12.90;68.60;;;;;;4180402;28;20132;-64
2022/01/02 13:45:27;;;;;;;0.00;0.00;;;12.90;69.00;;;;;;4180481;28;20072;-64
2022/01/02 13:48:11;;;;;;;0.00;0.00;;;12.90;69.40;;;;;;4180720;28;20057;-64
2022/01/02 13:50:55;;;;;;;0.00;0.00;;;12.60;69.60;;;;;;4180178;28;20045;-63
2022/01/02 13:53:41;;;;;;;0.00;0.00;;;12.50;70.50;;;;;;4193867;28;20049;-62
2022/01/02 13:56:20;;;;;;;0.00;0.00;;;12.40;71.10;;;;;;4180193;28;20095;-64
2022/01/02 13:59:03;;;;;;;0.00;0.00;;;12.30;71.20;;;;;;4173299;28;20099;-59
2022/01/02 14:01:48;;;;;;;0.00;0.00;;;12.10;72.10;;;;;;4180034;28;20049;-61
2022/01/02 14:04:54;;;;;;;0.00;0.00;;;11.80;73.00;;;;;;4168221;28;20060;-64
2022/01/02 14:07:35;;;;;;;0.00;0.00;;;11.80;73.30;;;;;;4178004;28;20506;-62
2022/01/02 14:10:18;;;;;;;0.00;0.00;;;11.80;73.60;;;;;;4179766;28;20044;-63
2022/01/02 14:13:03;;;;;;;0.00;0.00;;;11.90;73.80;;;;;;4180050;28;20049;-60
2022/01/02 14:16:00;;;;;;;0.00;0.00;;;12.00;73.40;;;;;;4179868;28;20048;-62